sensor_id;sensor_type;location;lat;lon;timestamp;pressure;altitude;pressure_sealevel;temperature;humidity
30724;BME280;17473;52.286;20.930;2023-05-02T00:02:18;100281.41;;;11.28;46.87
30724;BME280;17473;52.286;20.930;2023-05-02T00:04:45;100284.28;;;11.36;46.75
30724;BME280;17473;52.286;20.930;2023-05-02T00:07:12;100278.00;;;11.33;46.94
30724;BME280;17473;52.286;20.930;2023-05-02T00:09:40;100279.13;;;11.41;46.83
30724;BME280;17473;52.286;20.930;2023-05-02T00:12:07;100271.94;;;11.37;46.64
30724;BME280;17473;52.286;20.930;2023-05-02T00:14:34;100269.97;;;11.30;47.08
30724;BME280;17473;52.286;20.930;2023-05-02T00:17:01;100270.72;;;11.25;47.12
30724;BME280;17473;52.286;20.930;2023-05-02T00:19:28;100270.16;;;11.36;46.96
30724;BME280;17473;52.286;20.930;2023-05-02T00:21:55;100262.22;;;11.36;46.89
30724;BME280;17473;52.286;20.930;2023-05-02T00:24:22;100258.56;;;11.31;47.24
30724;BME280;17473;52.286;20.930;2023-05-02T00:26:49;100259.28;;;11.25;47.25
30724;BME280;17473;52.286;20.930;2023-05-02T00:29:17;100252.09;;;11.21;47.36
30724;BME280;17473;52.286;20.930;2023-05-02T00:31:44;100253.31;;;11.32;47.12
30724;BME280;17473;52.286;20.930;2023-05-02T00:34:11;100240.06;;;11.31;47.20
30724;BME280;17473;52.286;20.930;2023-05-02T00:36:38;100237.25;;;11.24;47.29
30724;BME280;17473;52.286;20.930;2023-05-02T00:39:05;100253.13;;;11.26;47.19
30724;BME280;17473;52.286;20.930;2023-05-02T00:41:32;100248.31;;;11.43;46.95
30724;BME280;17473;52.286;20.930;2023-05-02T00:43:59;100243.84;;;11.40;46.81
30724;BME280;17473;52.286;20.930;2023-05-02T00:46:26;100246.31;;;11.34;47.03
30724;BME280;17473;52.286;20.930;2023-05-02T00:48:53;100244.25;;;11.24;47.34
30724;BME280;17473;52.286;20.930;2023-05-02T00:51:20;100239.00;;;11.25;47.38
30724;BME280;17473;52.286;20.930;2023-05-02T00:53:48;100240.03;;;11.29;47.15
30724;BME280;17473;52.286;20.930;2023-05-02T00:56:15;100247.03;;;11.28;47.40
30724;BME280;17473;52.286;20.930;2023-05-02T00:58:43;100227.16;;;11.43;47.26
30724;BME280;17473;52.286;20.930;2023-05-02T01:10:26;100226.06;;;11.35;47.20
30724;BME280;17473;52.286;20.930;2023-05-02T01:13:21;100229.50;;;11.32;47.28
30724;BME280;17473;52.286;20.930;2023-05-02T01:15:53;100218.78;;;11.26;47.20
30724;BME280;17473;52.286;20.930;2023-05-02T01:18:30;100229.31;;;11.24;47.25
30724;BME280;17473;52.286;20.930;2023-05-02T01:21:02;100222.22;;;11.23;47.43
30724;BME280;17473;52.286;20.930;2023-05-02T01:29:29;100214.94;;;11.15;47.54
30724;BME280;17473;52.286;20.930;2023-05-02T01:31:58;100213.72;;;11.03;47.92
30724;BME280;17473;52.286;20.930;2023-05-02T01:34:27;100217.66;;;11.18;47.59
30724;BME280;17473;52.286;20.930;2023-05-02T01:36:56;100211.28;;;11.09;47.67
30724;BME280;17473;52.286;20.930;2023-05-02T01:39:25;100219.19;;;11.09;47.74
30724;BME280;17473;52.286;20.930;2023-05-02T01:41:56;100209.94;;;10.95;48.16
30724;BME280;17473;52.286;20.930;2023-05-02T01:44:26;100211.06;;;11.03;48.41
30724;BME280;17473;52.286;20.930;2023-05-02T01:46:57;100208.41;;;11.03;48.11
30724;BME280;17473;52.286;20.930;2023-05-02T01:49:26;100202.22;;;11.01;48.16
30724;BME280;17473;52.286;20.930;2023-05-02T01:51:55;100202.34;;;11.06;47.95
30724;BME280;17473;52.286;20.930;2023-05-02T01:54:26;100203.34;;;11.09;47.79
30724;BME280;17473;52.286;20.930;2023-05-02T01:56:54;100202.25;;;11.03;47.86
30724;BME280;17473;52.286;20.930;2023-05-02T01:59:23;100201.66;;;11.11;47.80
30724;BME280;17473;52.286;20.930;2023-05-02T02:01:51;100194.06;;;10.93;48.12
30724;BME280;17473;52.286;20.930;2023-05-02T02:04:20;100200.31;;;10.97;48.32
30724;BME280;17473;52.286;20.930;2023-05-02T02:07:01;100198.47;;;10.93;48.36
30724;BME280;17473;52.286;20.930;2023-05-02T02:09:30;100188.63;;;10.87;48.55
30724;BME280;17473;52.286;20.930;2023-05-02T02:12:11;100177.94;;;10.84;48.75
30724;BME280;17473;52.286;20.930;2023-05-02T02:15:32;100185.13;;;10.88;48.53
30724;BME280;17473;52.286;20.930;2023-05-02T02:17:39;100186.53;;;10.77;49.10
30724;BME280;17473;52.286;20.930;2023-05-02T02:20:10;100185.56;;;10.73;49.05
30724;BME280;17473;52.286;20.930;2023-05-02T02:22:40;100176.97;;;10.80;49.05
30724;BME280;17473;52.286;20.930;2023-05-02T02:25:13;100181.53;;;10.86;49.12
30724;BME280;17473;52.286;20.930;2023-05-02T02:27:41;100176.09;;;10.80;48.88
30724;BME280;17473;52.286;20.930;2023-05-02T02:30:09;100182.34;;;10.84;49.13
30724;BME280;17473;52.286;20.930;2023-05-02T02:32:37;100174.19;;;10.76;49.20
30724;BME280;17473;52.286;20.930;2023-05-02T02:35:04;100182.09;;;10.76;49.28
30724;BME280;17473;52.286;20.930;2023-05-02T02:40:28;100177.84;;;10.81;49.37
30724;BME280;17473;52.286;20.930;2023-05-02T02:49:25;100177.19;;;10.58;50.29
30724;BME280;17473;52.286;20.930;2023-05-02T02:52:16;100180.19;;;10.70;50.07
30724;BME280;17473;52.286;20.930;2023-05-02T02:55:18;100178.06;;;10.58;50.47
30724;BME280;17473;52.286;20.930;2023-05-02T03:00:28;100165.13;;;10.68;50.39
30724;BME280;17473;52.286;20.930;2023-05-02T03:02:55;100175.19;;;10.51;50.55
30724;BME280;17473;52.286;20.930;2023-05-02T03:05:23;100166.13;;;10.42;51.00
30724;BME280;17473;52.286;20.930;2023-05-02T03:07:51;100165.28;;;10.43;51.25
30724;BME280;17473;52.286;20.930;2023-05-02T03:10:18;100168.88;;;10.45;51.10
30724;BME280;17473;52.286;20.930;2023-05-02T03:12:47;100166.28;;;10.47;51.07
30724;BME280;17473;52.286;20.930;2023-05-02T03:18:19;100165.00;;;10.36;51.50
30724;BME280;17473;52.286;20.930;2023-05-02T03:20:47;100168.25;;;10.27;51.80
30724;BME280;17473;52.286;20.930;2023-05-02T03:23:14;100172.56;;;10.23;52.03
30724;BME280;17473;52.286;20.930;2023-05-02T03:25:41;100159.34;;;10.23;52.31
30724;BME280;17473;52.286;20.930;2023-05-02T03:28:08;100174.50;;;10.29;52.26
30724;BME280;17473;52.286;20.930;2023-05-02T03:30:36;100167.78;;;10.39;52.01
30724;BME280;17473;52.286;20.930;2023-05-02T03:33:06;100169.72;;;10.44;51.82
30724;BME280;17473;52.286;20.930;2023-05-02T03:35:34;100164.00;;;10.32;52.23
30724;BME280;17473;52.286;20.930;2023-05-02T03:38:01;100167.75;;;10.37;52.13
30724;BME280;17473;52.286;20.930;2023-05-02T03:40:29;100164.75;;;10.26;52.78
30724;BME280;17473;52.286;20.930;2023-05-02T03:42:56;100170.66;;;10.46;52.24
30724;BME280;17473;52.286;20.930;2023-05-02T03:45:23;100171.25;;;10.38;52.54
30724;BME280;17473;52.286;20.930;2023-05-02T03:47:50;100165.78;;;10.31;52.58
30724;BME280;17473;52.286;20.930;2023-05-02T03:50:17;100164.41;;;10.43;52.46
30724;BME280;17473;52.286;20.930;2023-05-02T03:52:44;100166.34;;;10.48;52.40
30724;BME280;17473;52.286;20.930;2023-05-02T03:55:12;100167.75;;;10.66;51.82
30724;BME280;17473;52.286;20.930;2023-05-02T03:57:39;100169.34;;;10.61;51.99
30724;BME280;17473;52.286;20.930;2023-05-02T04:00:07;100166.38;;;10.79;51.71
30724;BME280;17473;52.286;20.930;2023-05-02T04:02:34;100167.69;;;10.64;51.99
30724;BME280;17473;52.286;20.930;2023-05-02T04:05:02;100165.56;;;10.82;51.73
30724;BME280;17473;52.286;20.930;2023-05-02T04:07:29;100168.06;;;11.09;50.97
30724;BME280;17473;52.286;20.930;2023-05-02T04:09:56;100166.25;;;11.06;50.94
30724;BME280;17473;52.286;20.930;2023-05-02T04:12:24;100178.03;;;11.18;50.82
30724;BME280;17473;52.286;20.930;2023-05-02T04:14:51;100174.41;;;11.81;49.30
30724;BME280;17473;52.286;20.930;2023-05-02T04:17:19;100172.38;;;12.04;48.75
30724;BME280;17473;52.286;20.930;2023-05-02T04:19:46;100167.19;;;12.47;47.49
30724;BME280;17473;52.286;20.930;2023-05-02T04:22:16;100157.66;;;12.56;47.29
30724;BME280;17473;52.286;20.930;2023-05-02T04:24:43;100171.66;;;12.91;46.31
30724;BME280;17473;52.286;20.930;2023-05-02T04:27:10;100161.69;;;12.79;46.71
30724;BME280;17473;52.286;20.930;2023-05-02T04:29:40;100174.25;;;13.33;45.47
30724;BME280;17473;52.286;20.930;2023-05-02T04:32:08;100171.59;;;13.33;45.40
30724;BME280;17473;52.286;20.930;2023-05-02T04:34:36;100172.75;;;13.44;44.99
30724;BME280;17473;52.286;20.930;2023-05-02T04:37:03;100169.75;;;14.28;43.30
30724;BME280;17473;52.286;20.930;2023-05-02T04:39:30;100163.41;;;14.81;42.34
30724;BME280;17473;52.286;20.930;2023-05-02T04:41:57;100167.09;;;14.93;41.77
30724;BME280;17473;52.286;20.930;2023-05-02T04:44:24;100169.09;;;14.45;42.78
30724;BME280;17473;52.286;20.930;2023-05-02T04:46:52;100166.63;;;15.29;41.20
30724;BME280;17473;52.286;20.930;2023-05-02T04:49:19;100167.78;;;15.53;40.65
30724;BME280;17473;52.286;20.930;2023-05-02T04:51:46;100168.13;;;15.04;41.34
30724;BME280;17473;52.286;20.930;2023-05-02T04:54:14;100161.31;;;15.28;41.01
30724;BME280;17473;52.286;20.930;2023-05-02T04:56:41;100165.19;;;15.59;40.46
30724;BME280;17473;52.286;20.930;2023-05-02T04:59:08;100159.78;;;16.61;38.70
30724;BME280;17473;52.286;20.930;2023-05-02T05:01:35;100172.53;;;17.26;37.35
30724;BME280;17473;52.286;20.930;2023-05-02T05:04:03;100163.69;;;18.52;35.49
30724;BME280;17473;52.286;20.930;2023-05-02T05:06:30;100164.13;;;19.60;33.81
30724;BME280;17473;52.286;20.930;2023-05-02T05:08:57;100161.59;;;21.26;31.36
30724;BME280;17473;52.286;20.930;2023-05-02T05:11:25;100146.59;;;23.21;28.45
30724;BME280;17473;52.286;20.930;2023-05-02T05:13:52;100146.19;;;24.14;27.36
30724;BME280;17473;52.286;20.930;2023-05-02T05:16:19;100153.34;;;25.72;25.15
30724;BME280;17473;52.286;20.930;2023-05-02T05:18:46;100140.88;;;27.45;23.44
30724;BME280;17473;52.286;20.930;2023-05-02T05:21:15;100146.94;;;27.05;23.31
30724;BME280;17473;52.286;20.930;2023-05-02T05:23:42;100138.13;;;27.22;23.19
30724;BME280;17473;52.286;20.930;2023-05-02T05:26:14;100138.28;;;28.50;21.89
30724;BME280;17473;52.286;20.930;2023-05-02T05:28:42;100135.91;;;28.42;21.81
30724;BME280;17473;52.286;20.930;2023-05-02T05:31:11;100138.28;;;29.49;21.17
30724;BME280;17473;52.286;20.930;2023-05-02T05:33:42;100130.34;;;30.35;20.16
30724;BME280;17473;52.286;20.930;2023-05-02T05:36:12;100133.56;;;30.26;20.48
30724;BME280;17473;52.286;20.930;2023-05-02T05:38:41;100125.94;;;30.50;19.88
30724;BME280;17473;52.286;20.930;2023-05-02T05:41:08;100130.63;;;30.82;19.72
30724;BME280;17473;52.286;20.930;2023-05-02T05:43:36;100137.84;;;30.83;19.67
30724;BME280;17473;52.286;20.930;2023-05-02T05:46:04;100136.59;;;30.20;20.38
30724;BME280;17473;52.286;20.930;2023-05-02T05:48:31;100130.88;;;26.49;24.07
30724;BME280;17473;52.286;20.930;2023-05-02T05:51:05;100144.25;;;25.46;25.51
30724;BME280;17473;52.286;20.930;2023-05-02T05:53:33;100139.75;;;24.85;26.52
30724;BME280;17473;52.286;20.930;2023-05-02T05:56:09;100136.94;;;23.50;28.37
30724;BME280;17473;52.286;20.930;2023-05-02T05:58:37;100140.56;;;23.07;29.24
30724;BME280;17473;52.286;20.930;2023-05-02T06:01:04;100129.97;;;27.69;23.90
30724;BME280;17473;52.286;20.930;2023-05-02T06:03:32;100129.78;;;30.11;21.31
30724;BME280;17473;52.286;20.930;2023-05-02T06:05:59;100129.84;;;31.61;19.66
30724;BME280;17473;52.286;20.930;2023-05-02T06:08:26;100134.16;;;28.41;22.88
30724;BME280;17473;52.286;20.930;2023-05-02T06:10:53;100139.69;;;26.04;25.61
30724;BME280;17473;52.286;20.930;2023-05-02T06:13:21;100141.72;;;24.13;27.80
30724;BME280;17473;52.286;20.930;2023-05-02T06:15:48;100135.84;;;22.76;29.85
30724;BME280;17473;52.286;20.930;2023-05-02T06:18:15;100136.50;;;24.06;28.59
30724;BME280;17473;52.286;20.930;2023-05-02T06:20:42;100140.16;;;23.27;29.55
30724;BME280;17473;52.286;20.930;2023-05-02T06:23:09;100142.00;;;22.32;30.93
30724;BME280;17473;52.286;20.930;2023-05-02T06:25:37;100148.38;;;22.28;31.53
30724;BME280;17473;52.286;20.930;2023-05-02T06:28:04;100149.47;;;22.18;31.50
30724;BME280;17473;52.286;20.930;2023-05-02T06:30:32;100140.00;;;22.92;30.86
30724;BME280;17473;52.286;20.930;2023-05-02T06:32:59;100138.31;;;24.39;29.05
30724;BME280;17473;52.286;20.930;2023-05-02T06:35:26;100145.44;;;25.93;26.82
30724;BME280;17473;52.286;20.930;2023-05-02T06:37:53;100136.19;;;28.36;24.45
30724;BME280;17473;52.286;20.930;2023-05-02T06:40:20;100144.03;;;30.51;22.40
30724;BME280;17473;52.286;20.930;2023-05-02T06:42:47;100139.75;;;31.94;21.08
30724;BME280;17473;52.286;20.930;2023-05-02T06:45:15;100147.59;;;32.00;20.78
30724;BME280;17473;52.286;20.930;2023-05-02T06:47:42;100142.00;;;32.63;20.12
30724;BME280;17473;52.286;20.930;2023-05-02T06:50:09;100144.88;;;32.90;19.77
30724;BME280;17473;52.286;20.930;2023-05-02T06:52:37;100155.78;;;33.19;20.07
30724;BME280;17473;52.286;20.930;2023-05-02T06:55:05;100151.22;;;32.31;20.96
30724;BME280;17473;52.286;20.930;2023-05-02T06:57:32;100152.53;;;31.94;21.24
30724;BME280;17473;52.286;20.930;2023-05-02T06:59:59;100158.31;;;31.88;21.03
30724;BME280;17473;52.286;20.930;2023-05-02T07:02:27;100152.41;;;32.42;20.73
30724;BME280;17473;52.286;20.930;2023-05-02T07:04:54;100151.19;;;32.76;20.45
30724;BME280;17473;52.286;20.930;2023-05-02T07:07:21;100155.81;;;32.31;20.88
30724;BME280;17473;52.286;20.930;2023-05-02T07:09:48;100151.50;;;32.72;20.65
30724;BME280;17473;52.286;20.930;2023-05-02T07:12:15;100147.28;;;32.66;20.68
30724;BME280;17473;52.286;20.930;2023-05-02T07:14:43;100154.75;;;33.36;20.25
30724;BME280;17473;52.286;20.930;2023-05-02T07:17:12;100146.03;;;31.80;21.72
30724;BME280;17473;52.286;20.930;2023-05-02T07:19:40;100147.53;;;31.54;21.75
30724;BME280;17473;52.286;20.930;2023-05-02T07:22:10;100141.09;;;32.18;21.63
30724;BME280;17473;52.286;20.930;2023-05-02T07:24:41;100145.75;;;31.53;21.99
30724;BME280;17473;52.286;20.930;2023-05-02T07:27:10;100147.41;;;31.40;21.66
30724;BME280;17473;52.286;20.930;2023-05-02T07:29:38;100150.41;;;30.85;22.24
30724;BME280;17473;52.286;20.930;2023-05-02T07:32:06;100155.44;;;31.43;22.32
30724;BME280;17473;52.286;20.930;2023-05-02T07:34:33;100150.25;;;30.71;22.32
30724;BME280;17473;52.286;20.930;2023-05-02T07:37:00;100149.59;;;30.83;22.20
30724;BME280;17473;52.286;20.930;2023-05-02T07:39:27;100156.00;;;29.39;23.02
30724;BME280;17473;52.286;20.930;2023-05-02T07:41:54;100147.38;;;29.29;23.29
30724;BME280;17473;52.286;20.930;2023-05-02T07:44:22;100158.03;;;29.14;23.65
30724;BME280;17473;52.286;20.930;2023-05-02T07:46:51;100150.25;;;29.64;23.04
30724;BME280;17473;52.286;20.930;2023-05-02T07:49:18;100141.00;;;30.40;22.80
30724;BME280;17473;52.286;20.930;2023-05-02T07:51:46;100148.84;;;30.64;22.31
30724;BME280;17473;52.286;20.930;2023-05-02T07:54:18;100154.47;;;30.25;22.90
30724;BME280;17473;52.286;20.930;2023-05-02T07:56:45;100158.84;;;30.10;23.08
30724;BME280;17473;52.286;20.930;2023-05-02T07:59:13;100152.84;;;30.04;23.15
30724;BME280;17473;52.286;20.930;2023-05-02T08:01:40;100151.03;;;29.48;23.78
30724;BME280;17473;52.286;20.930;2023-05-02T08:04:08;100165.66;;;29.82;23.68
30724;BME280;17473;52.286;20.930;2023-05-02T08:06:39;100168.53;;;30.16;23.38
30724;BME280;17473;52.286;20.930;2023-05-02T08:09:07;100170.13;;;30.20;23.41
30724;BME280;17473;52.286;20.930;2023-05-02T08:11:35;100171.19;;;28.84;24.72
30724;BME280;17473;52.286;20.930;2023-05-02T08:14:02;100172.41;;;29.37;24.44
30724;BME280;17473;52.286;20.930;2023-05-02T08:16:29;100186.31;;;30.23;23.66
30724;BME280;17473;52.286;20.930;2023-05-02T08:18:56;100177.13;;;29.70;24.08
30724;BME280;17473;52.286;20.930;2023-05-02T08:21:23;100178.59;;;29.77;24.02
30724;BME280;17473;52.286;20.930;2023-05-02T08:23:50;100169.91;;;30.25;23.65
30724;BME280;17473;52.286;20.930;2023-05-02T08:26:17;100168.69;;;30.48;23.56
30724;BME280;17473;52.286;20.930;2023-05-02T08:28:47;100170.97;;;30.57;23.48
30724;BME280;17473;52.286;20.930;2023-05-02T08:31:14;100190.13;;;30.02;24.25
30724;BME280;17473;52.286;20.930;2023-05-02T08:33:42;100181.50;;;28.96;25.33
30724;BME280;17473;52.286;20.930;2023-05-02T08:36:14;100193.72;;;29.26;25.14
30724;BME280;17473;52.286;20.930;2023-05-02T08:38:44;100191.50;;;29.35;25.51
30724;BME280;17473;52.286;20.930;2023-05-02T08:41:18;100192.56;;;29.31;25.20
30724;BME280;17473;52.286;20.930;2023-05-02T08:43:46;100187.13;;;27.39;27.81
30724;BME280;17473;52.286;20.930;2023-05-02T08:46:15;100184.34;;;28.31;27.17
30724;BME280;17473;52.286;20.930;2023-05-02T08:48:45;100186.22;;;29.32;25.68
30724;BME280;17473;52.286;20.930;2023-05-02T08:51:16;100192.66;;;28.69;26.61
30724;BME280;17473;52.286;20.930;2023-05-02T08:53:49;100192.59;;;28.71;26.06
30724;BME280;17473;52.286;20.930;2023-05-02T08:56:18;100198.31;;;28.22;26.67
30724;BME280;17473;52.286;20.930;2023-05-02T08:58:45;100199.03;;;28.27;27.23
30724;BME280;17473;52.286;20.930;2023-05-02T09:01:18;100185.31;;;28.92;26.34
30724;BME280;17473;52.286;20.930;2023-05-02T09:03:48;100196.78;;;28.57;27.02
30724;BME280;17473;52.286;20.930;2023-05-02T09:06:20;100196.31;;;28.68;26.80
30724;BME280;17473;52.286;20.930;2023-05-02T09:08:50;100197.13;;;28.50;26.89
30724;BME280;17473;52.286;20.930;2023-05-02T09:11:20;100192.34;;;28.14;27.76
30724;BME280;17473;52.286;20.930;2023-05-02T09:13:50;100199.34;;;28.19;27.36
30724;BME280;17473;52.286;20.930;2023-05-02T09:16:23;100198.00;;;27.85;27.79
30724;BME280;17473;52.286;20.930;2023-05-02T09:18:53;100203.06;;;27.01;28.42
30724;BME280;17473;52.286;20.930;2023-05-02T09:21:26;100212.66;;;27.10;28.94
30724;BME280;17473;52.286;20.930;2023-05-02T09:24:00;100211.53;;;27.15;28.96
30724;BME280;17473;52.286;20.930;2023-05-02T09:26:30;100209.81;;;26.89;29.09
30724;BME280;17473;52.286;20.930;2023-05-02T09:29:01;100212.66;;;26.59;29.94
30724;BME280;17473;52.286;20.930;2023-05-02T09:31:32;100208.25;;;26.56;30.17
30724;BME280;17473;52.286;20.930;2023-05-02T09:34:23;100221.69;;;26.04;30.46
30724;BME280;17473;52.286;20.930;2023-05-02T09:36:51;100233.59;;;25.99;30.91
30724;BME280;17473;52.286;20.930;2023-05-02T09:39:27;100232.72;;;24.75;32.66
30724;BME280;17473;52.286;20.930;2023-05-02T09:41:56;100240.53;;;24.51;33.04
30724;BME280;17473;52.286;20.930;2023-05-02T09:44:27;100235.69;;;24.99;32.56
30724;BME280;17473;52.286;20.930;2023-05-02T09:47:02;100235.16;;;24.86;32.99
30724;BME280;17473;52.286;20.930;2023-05-02T09:49:44;100247.50;;;25.26;32.35
30724;BME280;17473;52.286;20.930;2023-05-02T09:52:17;100246.44;;;25.32;32.51
30724;BME280;17473;52.286;20.930;2023-05-02T09:54:45;100238.94;;;25.42;32.24
30724;BME280;17473;52.286;20.930;2023-05-02T09:57:13;100247.53;;;25.86;32.08
30724;BME280;17473;52.286;20.930;2023-05-02T09:59:40;100253.94;;;25.54;32.51
30724;BME280;17473;52.286;20.930;2023-05-02T10:02:08;100249.59;;;25.16;33.31
30724;BME280;17473;52.286;20.930;2023-05-02T10:04:38;100254.06;;;25.18;33.31
30724;BME280;17473;52.286;20.930;2023-05-02T10:07:07;100262.97;;;24.88;34.47
30724;BME280;17473;52.286;20.930;2023-05-02T10:09:42;100254.00;;;25.51;33.23
30724;BME280;17473;52.286;20.930;2023-05-02T10:12:13;100259.75;;;25.38;33.71
30724;BME280;17473;52.286;20.930;2023-05-02T10:14:48;100261.44;;;25.11;34.14
30724;BME280;17473;52.286;20.930;2023-05-02T10:17:45;100268.63;;;25.12;34.34
30724;BME280;17473;52.286;20.930;2023-05-02T10:20:21;100268.09;;;24.99;34.30
30724;BME280;17473;52.286;20.930;2023-05-02T10:22:49;100267.97;;;25.02;35.04
30724;BME280;17473;52.286;20.930;2023-05-02T10:25:17;100271.19;;;24.83;35.62
30724;BME280;17473;52.286;20.930;2023-05-02T10:27:44;100286.06;;;25.00;35.14
30724;BME280;17473;52.286;20.930;2023-05-02T10:30:12;100289.09;;;24.88;35.46
30724;BME280;17473;52.286;20.930;2023-05-02T10:32:39;100293.31;;;24.62;35.83
30724;BME280;17473;52.286;20.930;2023-05-02T10:35:08;100295.16;;;24.60;36.05
30724;BME280;17473;52.286;20.930;2023-05-02T10:37:37;100309.69;;;24.18;36.24
30724;BME280;17473;52.286;20.930;2023-05-02T10:40:12;100313.09;;;23.85;36.44
30724;BME280;17473;52.286;20.930;2023-05-02T10:42:43;100309.63;;;23.80;36.68
30724;BME280;17473;52.286;20.930;2023-05-02T10:45:33;100310.06;;;23.58;37.09
30724;BME280;17473;52.286;20.930;2023-05-02T10:48:19;100321.06;;;23.01;37.55
30724;BME280;17473;52.286;20.930;2023-05-02T10:53:32;100338.81;;;22.59;39.11
30724;BME280;17473;52.286;20.930;2023-05-02T10:56:18;100347.22;;;22.41;40.81
30724;BME280;17473;52.286;20.930;2023-05-02T10:58:51;100344.72;;;22.25;42.18
30724;BME280;17473;52.286;20.930;2023-05-02T11:04:03;100353.63;;;21.63;44.54
30724;BME280;17473;52.286;20.930;2023-05-02T11:11:55;100363.78;;;21.33;47.05
30724;BME280;17473;52.286;20.930;2023-05-02T11:24:47;100402.13;;;20.39;51.39
30724;BME280;17473;52.286;20.930;2023-05-02T11:30:08;100412.94;;;20.18;52.33
30724;BME280;17473;52.286;20.930;2023-05-02T11:38:11;100427.13;;;20.44;54.14
30724;BME280;17473;52.286;20.930;2023-05-02T11:40:38;100418.19;;;20.40;54.22
30724;BME280;17473;52.286;20.930;2023-05-02T11:43:17;100418.22;;;20.39;54.26
30724;BME280;17473;52.286;20.930;2023-05-02T11:45:45;100420.97;;;20.23;54.01
30724;BME280;17473;52.286;20.930;2023-05-02T11:48:15;100425.28;;;20.51;53.95
30724;BME280;17473;52.286;20.930;2023-05-02T11:50:49;100435.00;;;20.73;53.60
30724;BME280;17473;52.286;20.930;2023-05-02T11:53:25;100430.41;;;20.86;53.44
30724;BME280;17473;52.286;20.930;2023-05-02T11:55:59;100427.72;;;20.89;52.21
30724;BME280;17473;52.286;20.930;2023-05-02T11:58:29;100428.53;;;21.01;52.00
30724;BME280;17473;52.286;20.930;2023-05-02T12:03:42;100430.06;;;21.28;51.41
30724;BME280;17473;52.286;20.930;2023-05-02T12:06:12;100445.25;;;21.32;50.47
30724;BME280;17473;52.286;20.930;2023-05-02T12:08:43;100435.19;;;21.51;50.02
30724;BME280;17473;52.286;20.930;2023-05-02T12:11:15;100439.41;;;21.77;48.73
30724;BME280;17473;52.286;20.930;2023-05-02T12:13:49;100430.50;;;21.77;49.84
30724;BME280;17473;52.286;20.930;2023-05-02T12:16:18;100442.16;;;22.46;47.73
30724;BME280;17473;52.286;20.930;2023-05-02T12:18:46;100426.91;;;22.48;47.46
30724;BME280;17473;52.286;20.930;2023-05-02T12:21:14;100435.91;;;22.45;46.20
30724;BME280;17473;52.286;20.930;2023-05-02T12:23:43;100433.78;;;21.97;47.09
30724;BME280;17473;52.286;20.930;2023-05-02T12:26:20;100439.13;;;22.03;46.70
30724;BME280;17473;52.286;20.930;2023-05-02T12:28:51;100440.91;;;22.04;46.91
30724;BME280;17473;52.286;20.930;2023-05-02T12:31:21;100447.25;;;21.97;46.48
30724;BME280;17473;52.286;20.930;2023-05-02T12:33:48;100450.28;;;21.69;45.96
30724;BME280;17473;52.286;20.930;2023-05-02T12:36:18;100441.34;;;21.64;46.49
30724;BME280;17473;52.286;20.930;2023-05-02T12:38:54;100447.50;;;21.76;46.79
30724;BME280;17473;52.286;20.930;2023-05-02T12:41:37;100449.97;;;21.96;46.15
30724;BME280;17473;52.286;20.930;2023-05-02T12:44:05;100444.72;;;21.85;46.41
30724;BME280;17473;52.286;20.930;2023-05-02T12:46:33;100447.41;;;21.83;47.05
30724;BME280;17473;52.286;20.930;2023-05-02T12:49:08;100445.59;;;21.87;46.09
30724;BME280;17473;52.286;20.930;2023-05-02T12:51:38;100445.16;;;22.19;44.49
30724;BME280;17473;52.286;20.930;2023-05-02T12:54:06;100450.88;;;21.93;44.06
30724;BME280;17473;52.286;20.930;2023-05-02T12:56:40;100453.56;;;21.93;42.98
30724;BME280;17473;52.286;20.930;2023-05-02T12:59:28;100450.31;;;21.63;41.83
30724;BME280;17473;52.286;20.930;2023-05-02T13:01:57;100451.09;;;21.75;41.63
30724;BME280;17473;52.286;20.930;2023-05-02T13:04:38;100455.50;;;21.79;41.35
30724;BME280;17473;52.286;20.930;2023-05-02T13:07:07;100461.75;;;21.84;41.25
30724;BME280;17473;52.286;20.930;2023-05-02T13:09:34;100468.03;;;21.80;41.34
30724;BME280;17473;52.286;20.930;2023-05-02T13:12:01;100463.81;;;21.60;41.16
30724;BME280;17473;52.286;20.930;2023-05-02T13:14:29;100466.34;;;21.72;41.06
30724;BME280;17473;52.286;20.930;2023-05-02T13:16:56;100476.06;;;21.86;39.86
30724;BME280;17473;52.286;20.930;2023-05-02T13:19:24;100470.72;;;21.83;39.42
30724;BME280;17473;52.286;20.930;2023-05-02T13:21:51;100474.97;;;22.02;38.84
30724;BME280;17473;52.286;20.930;2023-05-02T13:24:18;100467.72;;;22.09;38.51
30724;BME280;17473;52.286;20.930;2023-05-02T13:26:45;100477.31;;;22.29;37.93
30724;BME280;17473;52.286;20.930;2023-05-02T13:29:12;100471.16;;;22.20;37.99
30724;BME280;17473;52.286;20.930;2023-05-02T13:31:39;100471.09;;;22.27;37.54
30724;BME280;17473;52.286;20.930;2023-05-02T13:34:06;100474.91;;;22.07;37.08
30724;BME280;17473;52.286;20.930;2023-05-02T13:36:33;100471.28;;;22.10;36.77
30724;BME280;17473;52.286;20.930;2023-05-02T13:39:02;100472.78;;;22.32;36.74
30724;BME280;17473;52.286;20.930;2023-05-02T13:41:30;100478.31;;;22.23;36.70
30724;BME280;17473;52.286;20.930;2023-05-02T13:43:57;100464.09;;;22.12;35.79
30724;BME280;17473;52.286;20.930;2023-05-02T13:46:24;100475.81;;;22.06;36.32
30724;BME280;17473;52.286;20.930;2023-05-02T13:48:51;100473.09;;;22.09;36.47
30724;BME280;17473;52.286;20.930;2023-05-02T13:51:18;100466.56;;;22.30;36.44
30724;BME280;17473;52.286;20.930;2023-05-02T13:53:45;100468.47;;;22.20;36.19
30724;BME280;17473;52.286;20.930;2023-05-02T13:56:12;100474.06;;;22.02;36.28